createdAt,value
2018-09-15T00:01:54.077Z,100720.98
2018-09-15T00:04:23.055Z,100715.41
2018-09-15T00:06:51.401Z,100723.53
2018-09-15T00:09:19.586Z,100718.59
2018-09-15T00:11:47.728Z,100718.80
2018-09-15T00:14:15.924Z,100722.66
2018-09-15T00:16:44.080Z,100717.94
2018-09-15T00:19:12.284Z,100718.66
2018-09-15T00:21:42.008Z,100720.91
2018-09-15T00:24:10.626Z,100727.33
2018-09-15T00:26:40.073Z,100731.42
2018-09-15T00:29:08.615Z,100727.03
2018-09-15T00:31:36.942Z,100722.77
2018-09-15T00:34:05.218Z,100730.52
2018-09-15T00:36:33.468Z,100738.37
2018-09-15T00:39:01.760Z,100734.39
2018-09-15T00:41:29.767Z,100736.43
2018-09-15T00:43:58.578Z,100735.71
2018-09-15T00:46:26.798Z,100728.19
2018-09-15T00:48:54.922Z,100726.59
2018-09-15T00:51:23.061Z,100729.91
2018-09-15T00:53:51.297Z,100730.69
2018-09-15T00:56:19.537Z,100728.19
2018-09-15T00:58:47.848Z,100721.67
2018-09-15T01:01:16.115Z,100718.95
2018-09-15T01:03:44.607Z,100716.51
2018-09-15T01:06:13.549Z,100710.70
2018-09-15T01:08:41.720Z,100716.64
2018-09-15T01:11:09.885Z,100712.47
2018-09-15T01:13:38.179Z,100712.61
2018-09-15T01:16:06.357Z,100729.59
2018-09-15T01:18:34.584Z,100729.90
2018-09-15T01:21:02.805Z,100736.23
2018-09-15T01:23:31.065Z,100742.86
2018-09-15T01:25:59.371Z,100737.07
2018-09-15T01:28:27.530Z,100734.77
2018-09-15T01:30:55.715Z,100736.72
2018-09-15T01:33:24.197Z,100734.27
2018-09-15T01:35:52.608Z,100739.87
2018-09-15T01:38:20.830Z,100744.38
2018-09-15T01:40:48.989Z,100756.48
2018-09-15T01:43:17.269Z,100761.68
2018-09-15T01:45:45.529Z,100767.63
2018-09-15T01:48:13.765Z,100774.06
2018-09-15T01:50:42.019Z,100770.95
2018-09-15T01:53:10.222Z,100775.75
2018-09-15T01:55:38.514Z,100769.95
2018-09-15T01:58:06.821Z,100768.72
2018-09-15T02:00:34.985Z,100764.29
2018-09-15T02:03:03.446Z,100759.58
2018-09-15T02:05:31.636Z,100768.87
2018-09-15T02:07:59.900Z,100766.32
2018-09-15T02:10:28.049Z,100766.20
2018-09-15T02:12:56.166Z,100773.16
2018-09-15T02:15:24.407Z,100776.11
2018-09-15T02:17:52.620Z,100777.23
2018-09-15T02:20:20.864Z,100774.16
2018-09-15T02:22:49.002Z,100780.39
2018-09-15T02:25:17.285Z,100781.59
2018-09-15T02:27:45.450Z,100787.03
2018-09-15T02:30:13.677Z,100794.14
2018-09-15T02:32:41.964Z,100801.17
2018-09-15T02:35:10.151Z,100802.50
2018-09-15T02:37:38.403Z,100804.65
2018-09-15T02:40:06.777Z,100796.74
2018-09-15T02:42:34.947Z,100794.19
2018-09-15T02:45:03.170Z,100794.79
2018-09-15T02:47:31.396Z,100792.83
2018-09-15T02:49:59.674Z,100789.37
2018-09-15T02:52:27.919Z,100791.48
2018-09-15T02:54:56.304Z,100798.98
2018-09-15T02:57:24.451Z,100804.81
2018-09-15T02:59:52.713Z,100804.48
2018-09-15T03:02:20.957Z,100801.21
2018-09-15T03:04:49.215Z,100800.29
2018-09-15T03:07:17.398Z,100795.39
2018-09-15T03:09:45.643Z,100799.38
2018-09-15T03:12:13.843Z,100791.55
2018-09-15T03:14:41.942Z,100794.23
2018-09-15T03:17:10.065Z,100793.27
2018-09-15T03:19:38.317Z,100794.55
2018-09-15T03:22:06.580Z,100797.66
2018-09-15T03:24:34.820Z,100807.11
2018-09-15T03:27:02.993Z,100803.81
2018-09-15T03:29:31.205Z,100812.61
2018-09-15T03:31:59.666Z,100817.52
2018-09-15T03:34:27.822Z,100820.95
2018-09-15T03:36:55.960Z,100810.03
2018-09-15T03:39:24.184Z,100808.96
2018-09-15T03:41:52.460Z,100809.04
2018-09-15T03:44:20.684Z,100806.77
2018-09-15T03:46:49.008Z,100807.08
2018-09-15T03:49:17.188Z,100812.09
2018-09-15T03:51:45.338Z,100812.55
2018-09-15T03:54:17.783Z,100815.83
2018-09-15T03:56:45.894Z,100808.84
2018-09-15T03:59:14.779Z,100808.58
2018-09-15T04:01:43.916Z,100807.09
2018-09-15T04:04:12.156Z,100811.86
2018-09-15T04:06:40.590Z,100813.22
2018-09-15T04:09:10.114Z,100819.24
2018-09-15T04:11:38.658Z,100828.17
2018-09-15T04:14:06.970Z,100835.30
2018-09-15T04:16:35.222Z,100839.66
2018-09-15T04:19:03.558Z,100842.80
2018-09-15T04:21:31.741Z,100849.27
2018-09-15T04:24:00.050Z,100854.94
2018-09-15T04:26:29.130Z,100858.16
2018-09-15T04:28:57.396Z,100857.70
2018-09-15T04:31:26.210Z,100858.93
2018-09-15T04:33:54.511Z,100863.78
2018-09-15T04:36:22.673Z,100866.08
2018-09-15T04:38:50.882Z,100871.80
2018-09-15T04:41:19.249Z,100866.55
2018-09-15T04:43:47.748Z,100866.91
2018-09-15T04:46:16.120Z,100865.85
2018-09-15T04:48:44.345Z,100865.44
2018-09-15T04:51:12.595Z,100859.97
2018-09-15T04:53:41.024Z,100876.48
2018-09-15T04:56:09.704Z,100876.25
2018-09-15T04:58:37.901Z,100880.31
2018-09-15T05:01:06.178Z,100883.91
2018-09-15T05:03:34.453Z,100884.84
2018-09-15T05:06:02.576Z,100884.46
2018-09-15T05:08:30.854Z,100889.66
2018-09-15T05:10:59.146Z,100893.49
2018-09-15T05:13:27.381Z,100893.80
2018-09-15T05:15:55.519Z,100896.44
2018-09-15T05:18:23.831Z,100899.42
2018-09-15T05:20:52.086Z,100906.21
2018-09-15T05:23:20.343Z,100911.47
2018-09-15T05:25:48.577Z,100902.54
2018-09-15T05:28:16.805Z,100904.97
2018-09-15T05:30:45.065Z,100905.31
2018-09-15T05:33:13.776Z,100912.03
2018-09-15T05:35:43.923Z,100913.70
2018-09-15T05:38:12.130Z,100916.41
2018-09-15T05:40:40.459Z,100925.91
2018-09-15T05:43:08.600Z,100930.48
2018-09-15T05:45:36.909Z,100932.64
2018-09-15T05:48:05.201Z,100933.72
2018-09-15T05:50:33.426Z,100928.90
2018-09-15T05:53:02.330Z,100932.79
2018-09-15T05:55:31.494Z,100931.94
2018-09-15T05:57:59.648Z,100938.82
2018-09-15T06:00:27.778Z,100946.50
2018-09-15T06:02:55.908Z,100948.41
2018-09-15T06:05:24.044Z,100949.67
2018-09-15T06:07:52.816Z,100959.27
2018-09-15T06:10:21.036Z,100962.73
2018-09-15T06:12:49.517Z,100963.10
2018-09-15T06:15:17.710Z,100973.58
2018-09-15T06:17:46.060Z,100970.36
2018-09-15T06:20:14.285Z,100972.17
2018-09-15T06:22:42.468Z,100968.14
2018-09-15T06:25:10.621Z,100970.36
2018-09-15T06:27:38.748Z,100978.41
2018-09-15T06:30:07.533Z,100968.63
2018-09-15T06:32:35.667Z,100965.49
2018-09-15T06:35:03.903Z,100969.75
2018-09-15T06:37:32.307Z,100970.02
2018-09-15T06:40:00.531Z,100977.41
2018-09-15T06:42:28.816Z,100986.85
2018-09-15T06:44:58.053Z,100987.66
2018-09-15T06:47:26.282Z,100988.51
2018-09-15T06:49:54.509Z,100993.67
2018-09-15T06:52:22.667Z,100996.82
2018-09-15T06:54:50.737Z,101003.03
2018-09-15T06:57:18.960Z,100998.08
2018-09-15T06:59:47.234Z,100996.16
2018-09-15T07:02:15.485Z,101007.64
2018-09-15T07:04:43.625Z,101011.92
2018-09-15T07:07:11.799Z,101013.98
2018-09-15T07:09:39.967Z,101015.92
2018-09-15T07:12:08.147Z,101019.94
2018-09-15T07:14:36.327Z,101022.94
2018-09-15T07:17:04.532Z,101016.91
2018-09-15T07:19:32.830Z,101017.33
2018-09-15T07:22:01.033Z,101017.96
2018-09-15T07:24:29.501Z,101023.76
2018-09-15T07:26:57.695Z,101025.22
2018-09-15T07:29:25.817Z,101028.61
2018-09-15T07:31:54.062Z,101034.80
2018-09-15T07:34:22.217Z,101034.91
2018-09-15T07:36:50.499Z,101036.67
2018-09-15T07:39:18.818Z,101039.67
2018-09-15T07:41:46.991Z,101044.16
2018-09-15T07:44:15.257Z,101042.47
2018-09-15T07:46:43.508Z,101048.33
2018-09-15T07:49:11.789Z,101042.91
2018-09-15T07:51:39.995Z,101046.75
2018-09-15T07:54:08.139Z,101050.28
2018-09-15T07:56:37.091Z,101045.68
2018-09-15T07:59:05.628Z,101047.98
2018-09-15T08:01:33.788Z,101052.28
2018-09-15T08:04:02.088Z,101054.25
2018-09-15T08:06:30.422Z,101059.38
2018-09-15T08:08:58.836Z,101060.34
2018-09-15T08:11:26.986Z,101059.19
2018-09-15T08:13:55.120Z,101058.47
2018-09-15T08:16:23.472Z,101061.83
2018-09-15T08:18:51.671Z,101067.67
2018-09-15T08:21:20.023Z,101065.56
2018-09-15T08:23:48.168Z,101072.52
2018-09-15T08:26:16.798Z,101067.23
2018-09-15T08:28:44.833Z,101073.38
2018-09-15T08:31:12.964Z,101072.91
2018-09-15T08:33:41.089Z,101071.61
2018-09-15T08:36:15.826Z,101066.83
2018-09-15T08:38:44.468Z,101069.55
2018-09-15T08:41:12.673Z,101074.30
2018-09-15T08:43:40.896Z,101075.23
2018-09-15T08:46:09.164Z,101071.09
2018-09-15T08:48:37.376Z,101074.14
2018-09-15T08:51:05.747Z,101083.95
2018-09-15T08:53:34.077Z,101082.91
2018-09-15T08:56:02.231Z,101080.81
2018-09-15T08:58:30.420Z,101075.02
2018-09-15T09:00:58.646Z,101071.59
2018-09-15T09:03:26.861Z,101072.09
2018-09-15T09:05:55.079Z,101073.33
2018-09-15T09:08:23.225Z,101071.73
2018-09-15T09:10:51.379Z,101066.51
2018-09-15T09:13:19.853Z,101064.69
2018-09-15T09:15:47.997Z,101065.45
2018-09-15T09:18:16.306Z,101062.77
2018-09-15T09:20:44.453Z,101063.94
2018-09-15T09:23:12.787Z,101065.43
2018-09-15T09:25:40.972Z,101057.59
2018-09-15T09:28:09.322Z,101062.82
2018-09-15T09:30:37.417Z,101062.67
2018-09-15T09:33:05.632Z,101069.20
2018-09-15T09:35:33.809Z,101062.20
2018-09-15T09:38:01.964Z,101069.57
2018-09-15T09:40:30.109Z,101064.44
2018-09-15T09:42:58.352Z,101055.39
2018-09-15T09:45:26.693Z,101056.63
2018-09-15T09:47:55.065Z,101057.31
2018-09-15T09:50:23.207Z,101045.96
2018-09-15T09:52:51.445Z,101050.73
2018-09-15T09:55:19.723Z,101048.11
2018-09-15T09:57:47.915Z,101050.40
2018-09-15T10:00:21.910Z,101050.02
2018-09-15T10:02:50.052Z,101047.09
2018-09-15T10:05:18.223Z,101047.52
2018-09-15T10:07:46.464Z,101051.79
2018-09-15T10:10:14.872Z,101050.91
2018-09-15T10:12:43.108Z,101056.17
2018-09-15T10:15:11.486Z,101049.14
2018-09-15T10:17:39.624Z,101053.96
2018-09-15T10:20:07.880Z,101044.97
2018-09-15T10:22:36.146Z,101041.69
2018-09-15T10:25:04.306Z,101038.12
2018-09-15T10:27:32.538Z,101038.70
2018-09-15T10:30:00.694Z,101032.05
2018-09-15T10:32:29.018Z,101035.43
2018-09-15T10:34:57.314Z,101031.36
2018-09-15T10:37:26.083Z,101037.89
2018-09-15T10:39:54.357Z,101043.38
2018-09-15T10:42:22.618Z,101031.95
2018-09-15T10:44:50.844Z,101024.41
2018-09-15T10:47:19.097Z,101020.63
2018-09-15T10:49:47.520Z,101025.03
2018-09-15T10:52:15.803Z,101025.12
2018-09-15T10:54:43.926Z,101024.64
2018-09-15T10:57:12.133Z,101020.41
2018-09-15T10:59:40.359Z,101018.18
2018-09-15T11:02:12.132Z,101029.21
2018-09-15T11:04:42.158Z,101012.84
2018-09-15T11:07:10.307Z,101010.30
2018-09-15T11:09:38.443Z,101016.97
2018-09-15T11:12:06.625Z,101017.99
2018-09-15T11:14:34.896Z,101011.19
2018-09-15T11:17:02.991Z,101010.13
2018-09-15T11:19:31.143Z,101010.51
2018-09-15T11:21:59.591Z,101013.63
2018-09-15T11:24:27.749Z,101008.02
2018-09-15T11:26:56.295Z,101010.46
2018-09-15T11:29:24.481Z,101007.48
2018-09-15T11:31:52.665Z,101007.63
2018-09-15T11:34:20.843Z,101017.40
2018-09-15T11:36:48.943Z,101009.97
2018-09-15T11:39:17.242Z,101011.15
2018-09-15T11:41:45.445Z,101011.81
2018-09-15T11:44:13.674Z,101013.30
2018-09-15T11:46:41.845Z,101023.44
2018-09-15T11:49:09.988Z,101013.75
2018-09-15T11:51:38.279Z,101014.50
2018-09-15T11:54:07.249Z,101018.80
2018-09-15T11:56:35.408Z,101019.03
2018-09-15T11:59:03.587Z,101018.22
2018-09-15T12:01:31.887Z,101007.91
2018-09-15T12:04:00.080Z,101010.78
2018-09-15T12:06:28.319Z,101016.19
2018-09-15T12:08:57.093Z,101011.91
2018-09-15T12:11:25.532Z,101017.70
2018-09-15T12:13:54.409Z,101015.02
2018-09-15T12:16:22.706Z,101014.41
2018-09-15T12:18:50.859Z,101016.77
2018-09-15T12:21:19.080Z,101021.26
2018-09-15T12:23:47.172Z,101017.94
2018-09-15T12:26:15.378Z,101021.95
2018-09-15T12:28:43.600Z,101018.72
2018-09-15T12:31:11.794Z,101020.52
2018-09-15T12:33:40.097Z,101014.29
2018-09-15T12:36:08.395Z,101022.90
2018-09-15T12:38:36.698Z,101013.91
2018-09-15T12:41:04.939Z,101014.80
2018-09-15T12:43:33.260Z,101020.41
2018-09-15T12:46:01.639Z,101017.33
2018-09-15T12:48:29.914Z,101017.09
2018-09-15T12:50:58.282Z,101023.75
2018-09-15T12:53:26.565Z,101011.17
2018-09-15T12:55:54.803Z,101013.56
2018-09-15T12:58:23.069Z,101016.70
2018-09-15T13:00:51.225Z,101015.33
2018-09-15T13:03:19.459Z,101023.45
2018-09-15T13:05:47.801Z,101014.06
2018-09-15T13:08:15.954Z,101016.23
2018-09-15T13:10:44.244Z,101024.36
2018-09-15T13:13:12.453Z,101024.75
2018-09-15T13:15:40.707Z,101024.92
2018-09-15T13:18:08.819Z,101030.44
2018-09-15T13:20:37.024Z,101028.23
2018-09-15T13:23:05.329Z,101019.14
2018-09-15T13:25:33.515Z,101023.09
2018-09-15T13:28:02.707Z,101021.95
2018-09-15T13:30:31.160Z,101028.71
2018-09-15T13:32:59.499Z,101012.84
2018-09-15T13:35:27.615Z,101020.67
2018-09-15T13:37:55.913Z,101023.20
2018-09-15T13:40:24.099Z,101020.05
2018-09-15T13:42:52.301Z,101021.54
2018-09-15T13:45:20.367Z,101021.88
2018-09-15T13:47:48.581Z,101026.58
2018-09-15T13:50:20.877Z,101027.39
2018-09-15T13:52:49.283Z,101031.75
2018-09-15T13:55:17.572Z,101031.93
2018-09-15T13:57:45.652Z,101031.49
2018-09-15T14:00:14.146Z,101038.99
2018-09-15T14:02:43.425Z,101031.73
2018-09-15T14:05:13.164Z,101033.96
2018-09-15T14:07:41.862Z,101034.03
2018-09-15T14:10:10.422Z,101047.23
2018-09-15T14:12:39.022Z,101036.52
2018-09-15T14:15:07.221Z,101040.00
2018-09-15T14:17:35.441Z,101046.19
2018-09-15T14:20:04.042Z,101036.01
2018-09-15T14:22:33.341Z,101043.14
2018-09-15T14:25:01.565Z,101040.97
2018-09-15T14:27:29.657Z,101046.59
2018-09-15T14:29:57.881Z,101050.62
2018-09-15T14:32:26.108Z,101050.08
2018-09-15T14:34:54.450Z,101049.41
2018-09-15T14:37:22.572Z,101047.58
2018-09-15T14:39:50.832Z,101051.02
2018-09-15T14:42:19.109Z,101047.11
2018-09-15T14:44:47.318Z,101043.28
2018-09-15T14:47:16.855Z,101048.11
2018-09-15T14:49:45.040Z,101035.94
2018-09-15T14:52:13.710Z,101039.05
2018-09-15T14:54:41.805Z,101040.08
2018-09-15T14:57:10.066Z,101043.31
2018-09-15T14:59:38.298Z,101033.95
2018-09-15T15:02:06.622Z,101033.66
2018-09-15T15:04:34.822Z,101030.36
2018-09-15T15:07:03.093Z,101031.88
2018-09-15T15:09:31.331Z,101034.13
2018-09-15T15:11:59.585Z,101036.26
2018-09-15T15:14:27.768Z,101035.62
2018-09-15T15:16:55.883Z,101036.95
2018-09-15T15:19:24.045Z,101040.25
2018-09-15T15:21:52.215Z,101046.06
2018-09-15T15:24:20.349Z,101040.61
2018-09-15T15:26:48.575Z,101036.48
2018-09-15T15:29:17.006Z,101033.00
2018-09-15T15:31:45.191Z,101023.30
2018-09-15T15:34:13.256Z,101020.88
2018-09-15T15:36:41.478Z,101020.77
2018-09-15T15:39:10.238Z,101018.97
2018-09-15T15:41:38.388Z,101012.39
2018-09-15T15:44:06.626Z,101017.28
2018-09-15T15:46:34.878Z,101021.23
2018-09-15T15:49:03.728Z,101027.17
2018-09-15T15:51:32.240Z,101024.22
2018-09-15T15:54:00.314Z,101020.64
2018-09-15T15:56:28.495Z,101024.07
2018-09-15T15:58:56.714Z,101026.31
2018-09-15T16:01:24.973Z,101028.53
2018-09-15T16:03:53.172Z,101023.55
2018-09-15T16:06:21.459Z,101031.02
2018-09-15T16:08:50.381Z,101032.96
2018-09-15T16:11:18.774Z,101030.80
2018-09-15T16:13:47.900Z,101027.19
2018-09-15T16:16:16.172Z,101023.94
2018-09-15T16:18:44.505Z,101028.90
2018-09-15T16:21:12.726Z,101018.72
2018-09-15T16:23:41.003Z,101029.45
2018-09-15T16:26:09.102Z,101033.57
2018-09-15T16:28:38.778Z,101036.03
2018-09-15T16:31:06.964Z,101036.87
2018-09-15T16:33:35.127Z,101043.71
2018-09-15T16:36:03.471Z,101046.44
2018-09-15T16:38:31.756Z,101047.27
2018-09-15T16:40:59.962Z,101038.75
2018-09-15T16:43:28.180Z,101056.03
2018-09-15T16:45:56.386Z,101055.76
2018-09-15T16:48:24.647Z,101062.22
2018-09-15T16:50:52.891Z,101063.30
2018-09-15T16:53:21.061Z,101063.01
2018-09-15T16:55:49.362Z,101066.04
2018-09-15T16:58:17.482Z,101064.35
2018-09-15T17:00:45.760Z,101067.61
2018-09-15T17:03:14.131Z,101063.44
2018-09-15T17:05:42.328Z,101063.86
2018-09-15T17:08:10.666Z,101052.52
2018-09-15T17:10:38.921Z,101060.41
2018-09-15T17:13:07.075Z,101060.27
2018-09-15T17:15:35.870Z,101060.95
2018-09-15T17:18:04.054Z,101060.22
2018-09-15T17:20:32.375Z,101063.22
2018-09-15T17:23:00.622Z,101072.66
2018-09-15T17:25:28.895Z,101071.82
2018-09-15T17:27:57.169Z,101072.92
2018-09-15T17:30:25.733Z,101076.97
2018-09-15T17:32:53.969Z,101079.34
2018-09-15T17:35:22.187Z,101092.86
2018-09-15T17:37:50.314Z,101093.90
2018-09-15T17:40:18.650Z,101094.16
2018-09-15T17:42:46.961Z,101100.91
2018-09-15T17:45:15.209Z,101096.84
2018-09-15T17:47:44.522Z,101103.41
2018-09-15T17:50:12.956Z,101099.72
2018-09-15T17:52:41.320Z,101103.50
2018-09-15T17:55:09.589Z,101102.60
2018-09-15T17:57:37.703Z,101108.37
2018-09-15T18:00:06.628Z,101113.29
2018-09-15T18:02:35.387Z,101116.34
2018-09-15T18:05:04.402Z,101119.89
2018-09-15T18:07:32.651Z,101117.71
2018-09-15T18:10:00.879Z,101125.73
2018-09-15T18:12:29.084Z,101125.43
2018-09-15T18:14:57.332Z,101127.69
2018-09-15T18:17:25.514Z,101143.17
2018-09-15T18:19:54.121Z,101146.06
2018-09-15T18:22:22.294Z,101148.44
2018-09-15T18:24:50.511Z,101153.09
2018-09-15T18:27:19.540Z,101153.10
2018-09-15T18:29:47.879Z,101155.89
2018-09-15T18:32:16.192Z,101161.75
2018-09-15T18:34:44.356Z,101163.02
2018-09-15T18:37:12.601Z,101165.42
2018-09-15T18:39:40.962Z,101166.13
2018-09-15T18:42:09.220Z,101169.88
2018-09-15T18:44:37.466Z,101172.30
2018-09-15T18:47:06.296Z,101167.96
2018-09-15T18:49:34.461Z,101172.05
2018-09-15T18:52:02.738Z,101172.51
2018-09-15T18:54:30.942Z,101177.81
2018-09-15T18:56:59.062Z,101177.50
2018-09-15T18:59:27.853Z,101177.81
2018-09-15T19:01:56.709Z,101183.06
2018-09-15T19:04:25.735Z,101181.48
2018-09-15T19:06:53.938Z,101180.44
2018-09-15T19:09:22.146Z,101183.41
2018-09-15T19:11:50.325Z,101184.87
2018-09-15T19:14:18.503Z,101189.80
2018-09-15T19:16:46.722Z,101188.09
2018-09-15T19:19:14.910Z,101189.35
2018-09-15T19:21:43.170Z,101194.62
2018-09-15T19:24:11.390Z,101192.91
2018-09-15T19:26:39.709Z,101192.28
2018-09-15T19:29:07.944Z,101189.77
2018-09-15T19:31:36.122Z,101187.17
2018-09-15T19:34:04.512Z,101185.05
2018-09-15T19:36:32.726Z,101191.33
2018-09-15T19:39:01.135Z,101190.30
2018-09-15T19:41:29.486Z,101196.60
2018-09-15T19:43:57.710Z,101194.05
2018-09-15T19:46:26.541Z,101195.36
2018-09-15T19:48:54.934Z,101198.09
2018-09-15T19:51:23.110Z,101198.14
2018-09-15T19:53:51.275Z,101199.22
2018-09-15T19:56:19.488Z,101198.78
2018-09-15T19:58:47.741Z,101201.61
2018-09-15T20:01:16.121Z,101204.13
2018-09-15T20:03:44.436Z,101200.61
2018-09-15T20:06:12.769Z,101202.89
2018-09-15T20:08:41.035Z,101208.02
2018-09-15T20:11:09.339Z,101206.57
2018-09-15T20:13:37.627Z,101207.09
2018-09-15T20:16:04.169Z,101210.77
2018-09-15T20:18:30.799Z,101208.75
2018-09-15T20:20:57.349Z,101209.66
2018-09-15T20:23:25.854Z,101211.20
2018-09-15T20:25:54.179Z,101210.89
2018-09-15T20:28:22.412Z,101217.64
2018-09-15T20:30:50.593Z,101220.05
2018-09-15T20:33:18.941Z,101225.33
2018-09-15T20:35:47.102Z,101230.72
2018-09-15T20:38:15.269Z,101224.16
2018-09-15T20:40:43.609Z,101223.70
2018-09-15T20:43:12.543Z,101231.80
2018-09-15T20:45:40.849Z,101236.08
2018-09-15T20:48:09.148Z,101234.05
2018-09-15T20:50:37.588Z,101234.81
2018-09-15T20:53:05.848Z,101231.99
2018-09-15T20:55:34.088Z,101246.34
2018-09-15T20:58:02.339Z,101244.04
2018-09-15T21:00:30.573Z,101244.18
2018-09-15T21:02:58.777Z,101256.48
2018-09-15T21:05:26.922Z,101252.34
2018-09-15T21:07:55.045Z,101257.33
2018-09-15T21:10:23.304Z,101256.43
2018-09-15T21:12:51.588Z,101250.39
2018-09-15T21:15:19.832Z,101257.19
2018-09-15T21:17:48.165Z,101256.89
2018-09-15T21:20:16.503Z,101246.63
2018-09-15T21:22:44.616Z,101257.83
2018-09-15T21:25:12.916Z,101254.50
2018-09-15T21:27:41.028Z,101257.68
2018-09-15T21:30:09.196Z,101259.56
2018-09-15T21:32:37.450Z,101257.30
2018-09-15T21:35:05.668Z,101263.86
2018-09-15T21:37:33.939Z,101257.20
2018-09-15T21:40:02.097Z,101258.80
2018-09-15T21:42:30.333Z,101270.13
2018-09-15T21:44:58.500Z,101276.47
2018-09-15T21:47:26.836Z,101280.77
2018-09-15T21:49:55.103Z,101278.75
2018-09-15T21:52:23.276Z,101287.28
2018-09-15T21:54:51.580Z,101291.58
2018-09-15T21:57:19.816Z,101280.01
2018-09-15T21:59:48.029Z,101283.05
2018-09-15T22:02:16.187Z,101285.91
2018-09-15T22:04:44.447Z,101288.01
2018-09-15T22:07:12.659Z,101288.17
2018-09-15T22:09:41.074Z,101294.64
2018-09-15T22:12:09.309Z,101296.55
2018-09-15T22:14:37.585Z,101292.09
2018-09-15T22:17:05.871Z,101296.00
2018-09-15T22:19:34.121Z,101295.17
2018-09-15T22:22:02.289Z,101300.70
2018-09-15T22:24:30.455Z,101303.55
2018-09-15T22:26:58.575Z,101302.73
2018-09-15T22:29:26.818Z,101313.51
2018-09-15T22:31:55.784Z,101302.58
2018-09-15T22:34:24.051Z,101306.35
2018-09-15T22:36:52.207Z,101305.06
2018-09-15T22:39:20.377Z,101299.16
2018-09-15T22:41:48.683Z,101307.49
2018-09-15T22:44:16.985Z,101308.75
2018-09-15T22:46:45.216Z,101311.31
2018-09-15T22:49:13.474Z,101305.95
2018-09-15T22:51:41.657Z,101301.87
2018-09-15T22:54:09.918Z,101305.20
2018-09-15T22:56:38.117Z,101311.92
2018-09-15T22:59:06.595Z,101312.31
2018-09-15T23:01:34.686Z,101311.17
2018-09-15T23:04:03.955Z,101313.76
2018-09-15T23:06:32.382Z,101312.92
2018-09-15T23:09:00.511Z,101312.46
2018-09-15T23:11:28.726Z,101306.64
2018-09-15T23:13:56.847Z,101307.81
2018-09-15T23:16:25.052Z,101307.34
2018-09-15T23:18:53.302Z,101306.35
2018-09-15T23:21:21.587Z,101310.95
2018-09-15T23:23:49.831Z,101312.58
2018-09-15T23:26:18.029Z,101306.02
2018-09-15T23:28:46.432Z,101312.31
2018-09-15T23:31:14.630Z,101319.91
2018-09-15T23:33:42.792Z,101316.67
2018-09-15T23:36:11.054Z,101317.33
2018-09-15T23:38:39.473Z,101324.58
2018-09-15T23:41:08.096Z,101322.60
2018-09-15T23:43:36.728Z,101320.20
2018-09-15T23:46:04.952Z,101319.14
2018-09-15T23:48:33.138Z,101320.82
2018-09-15T23:51:01.321Z,101316.45
2018-09-15T23:53:29.600Z,101319.37
2018-09-15T23:55:57.839Z,101310.70
2018-09-15T23:58:26.156Z,101307.21
